Minerva, OH (44657)

3:03 PM EDT on August 20, 2014 (GMT -0400)
Village of East Canton | Change Station
CLOSE
Current Station
Personal Weather Station
Location: East Canton, OH
Elevation: 1155 ft
Nearby Weather Stations
Active Advisory: Flood Warning

Elev 1155 ft 40.79 °N, 81.29 °W | Updated 3 minutes ago

Mostly Cloudy
Mostly Cloudy
80.4 °F
Feels Like 84 °F
N
1.6
Wind Variable Wind from SSW
Gusts 10.7 mph

Today
High -- | Low -- °F
--% Chance of Precip.
Yesterday
High -- | Low -- °F
Precip. -- in
6:39 AM 8:15 PM
Waning Crescent, 20% visible
Pressure 29.91 in
Visibility 10.0 miles
Clouds Mostly Cloudy 2400 ft
Mostly Cloudy 25000 ft
Heat Index 84 °F
Dew Point 70 °F
Humidity 70%
Rainfall 1.71 in
Snow Depth Not available.
UV 5 out of 12
Pollen 8.00 out of 12
Air Quality Not available.
Flu Activity Not available.
METAR KCAK 201851Z 22010KT 10SM BKN024 BKN250 27/20 A2993 RMK AO2 SLP127 T02670200

More Conditions Fewer Conditions

Pressure 29.91 in
Visibility 10.0 miles
Clouds Mostly Cloudy 2400 ft
Mostly Cloudy 25000 ft
Heat Index 84 °F
Dew Point 70 °F
Humidity 70%
Rainfall 1.71 in
Snow Depth Not available.
UV 5 out of 12
Pollen 8.00 out of 12
Air Quality Not available.
Flu Activity Not available.
METAR KCAK 201851Z 22010KT 10SM BKN024 BKN250 27/20 A2993 RMK AO2 SLP127 T02670200

More Conditions Fewer Conditions

10-Day Weather Forecast

Almanac

Astronomy

Aug. 20, 2014 Rise Set
Actual Time 6:39 AM EDT 8:15 PM EDT
Civil Twilight 6:10 AM EDT 8:44 PM EDT
Nautical Twilight 5:35 AM EDT 9:18 PM EDT
Astronomical Twilight 4:58 AM EDT 9:56 PM EDT
Moon 2:17 AM EDT 4:59 PM EDT
Length of Visible Light 14h 33m
Length of Day
13h 35m
Tomorrow will be 2m 28s shorter.
Waning Crescent, 20% of the Moon is Illuminated
Today
Waning Crescent
Aug 25
New
Sep 2
First Quarter
Sep 8
Full
Sep 15
Last Quarter

Today's Extremes

State Highs State Lows

Community

WunderPhotos

Upload Photos

1,745,718 photos uploaded!

WunderBlogs® & News

By Dr. Jeff Masters
Director of Meteorology, Weather Underground
By Kari Strenfel
Meteorologist, Weather Underground
By Christopher C. Burt
Weather Historian, Weather Underground
August 20, 2014
August 20, 2014
August 20, 2014

Nearby

Snow Depth

Station Depth Elevation
No new snow has been reported.

Earthquake Activity

City Distance Mag. Time & Date
No recent earthquake activity has been reported nearby.
Minimum magnitude displayed is 2.5.

Coastal Water Temperatures

Place Temperature
No Stations Reporting

Nearby Weather Stations